Time;durP1;ratioP1;P1;durP2;ratioP2;P2;SDS_P1;SDS_P2;PMS_P1;PMS_P2;Temp;Humidity;BMP_temperature;BMP_pressure;BME280_temperature;BME280_humidity;BME280_pressure;Samples;Min_cycle;Max_cycle;Signal;HPM_P1;HPM_P2
2022/11/12 00:00:25;;;;;;;;;;;;;;;7.98;73.96;102926.22;5077787;28;19931;-55
2022/11/12 00:02:51;;;;;;;;;;;;;;;8.01;74.05;102927.06;5085866;28;19962;-53
2022/11/12 00:05:16;;;;;;;;;;;;;;;8.00;74.26;102919.19;5085307;28;20380;-56
2022/11/12 00:07:41;;;;;;;;;;;;;;;8.01;74.23;102920.94;5082285;28;19991;-53
2022/11/12 00:10:07;;;;;;;;;;;;;;;8.00;74.09;102920.09;5082718;28;19923;-53
2022/11/12 00:12:32;;;;;;;;;;;;;;;8.01;74.00;102915.69;5087420;28;20436;-56
2022/11/12 00:14:58;;;;;;;;;;;;;;;8.00;74.08;102914.84;5089236;28;19951;-53
2022/11/12 00:17:23;;;;;;;;;;;;;;;8.01;74.02;102919.22;5084157;28;20361;-55
2022/11/12 00:19:48;;;;;;;;;;;;;;;8.05;73.85;102927.91;5088597;28;19951;-53
2022/11/12 00:22:14;;;;;;;;;;;;;;;8.05;74.10;102920.03;5076748;28;19928;-53
2022/11/12 00:24:39;;;;;;;;;;;;;;;8.04;74.08;102923.53;5086276;28;19942;-54
2022/11/12 00:27:05;;;;;;;;;;;;;;;8.03;74.08;102929.66;5087273;28;19920;-53
2022/11/12 00:29:30;;;;;;;;;;;;;;;8.01;74.00;102926.19;5089132;28;20029;-53
2022/11/12 00:31:55;;;;;;;;;;;;;;;8.02;73.94;102926.16;5085896;28;20384;-56
2022/11/12 00:34:20;;;;;;;;;;;;;;;8.01;74.26;102926.19;5083862;28;19916;-53
2022/11/12 00:36:46;;;;;;;;;;;;;;;7.98;74.32;102926.22;5090592;28;19975;-54
2022/11/12 00:39:11;;;;;;;;;;;;;;;7.97;74.39;102920.13;5090753;28;20389;-53
2022/11/12 00:41:36;;;;;;;;;;;;;;;7.98;74.24;102927.09;5084962;28;19935;-53
2022/11/12 00:44:01;;;;;;;;;;;;;;;7.96;74.53;102930.59;5091548;28;19928;-55
2022/11/12 00:46:27;;;;;;;;;;;;;;;7.97;74.20;102933.22;5083818;28;19924;-57
2022/11/12 00:48:52;;;;;;;;;;;;;;;7.95;74.46;102927.13;5087295;28;19920;-54
2022/11/12 00:51:17;;;;;;;;;;;;;;;7.97;74.53;102925.34;5082932;28;19927;-55
2022/11/12 00:53:45;;;;;;;;;;;;;;;7.99;74.42;102933.19;5098959;28;19938;-56
2022/11/12 00:56:11;;;;;;;;;;;;;;;7.96;74.44;102928.88;5091234;28;19920;-56
2022/11/12 00:58:36;;;;;;;;;;;;;;;7.98;74.34;102934.97;5093356;28;19935;-54
2022/11/12 01:01:06;;;;;;;;;;;;;;;7.99;74.45;102935.81;5089545;28;19963;-54
2022/11/12 01:03:31;;;;;;;;;;;;;;;7.99;74.47;102935.81;5087176;28;20379;-54
2022/11/12 01:06:07;;;;;;;;;;;;;;;7.98;74.24;102931.47;5085084;28;19963;-55
2022/11/12 01:08:32;;;;;;;;;;;;;;;7.96;74.55;102935.84;5070792;28;19919;-55
2022/11/12 01:11:16;;;;;;;;;;;;;;;7.92;74.48;102932.41;5089874;28;19916;-54
2022/11/12 01:13:42;;;;;;;;;;;;;;;7.89;74.86;102928.06;5091617;28;19969;-54
2022/11/12 01:16:12;;;;;;;;;;;;;;;7.85;74.84;102934.22;5093538;28;19955;-54
2022/11/12 01:18:38;;;;;;;;;;;;;;;7.83;74.83;102929.91;5089278;28;19928;-54
2022/11/12 01:21:04;;;;;;;;;;;;;;;7.80;74.85;102935.16;5094528;28;19928;-54
2022/11/12 01:23:36;;;;;;;;;;;;;;;7.76;75.18;102936.97;5092661;28;19997;-55
2022/11/12 01:26:21;;;;;;;;;;;;;;;7.75;74.87;102928.22;5091655;28;20398;-55
2022/11/12 01:28:47;;;;;;;;;;;;;;;7.78;74.76;102932.56;5080409;28;19927;-55
2022/11/12 01:31:21;;;;;;;;;;;;;;;7.80;74.78;102924.69;5089359;28;19924;-53
2022/11/12 01:33:48;;;;;;;;;;;;;;;7.82;74.75;102925.53;5088816;28;19931;-54
2022/11/12 01:36:15;;;;;;;;;;;;;;;7.81;75.01;102918.56;5087955;28;19963;-55
2022/11/12 01:38:41;;;;;;;;;;;;;;;7.82;74.81;102930.78;5086583;28;19943;-57
2022/11/12 01:41:07;;;;;;;;;;;;;;;7.78;74.56;102940.44;5083503;28;19920;-53
2022/11/12 01:43:33;;;;;;;;;;;;;;;7.77;74.57;102928.22;5082220;28;19931;-53
2022/11/12 01:46:01;;;;;;;;;;;;;;;7.75;74.63;102935.22;5087094;28;19920;-56
2022/11/12 01:48:26;;;;;;;;;;;;;;;7.73;74.27;102931.75;5086822;28;20013;-60
2022/11/12 01:50:52;;;;;;;;;;;;;;;7.75;74.10;102940.47;5088944;28;19930;-53
2022/11/12 01:53:18;;;;;;;;;;;;;;;7.75;74.16;102927.34;5091691;28;19931;-56
2022/11/12 01:55:44;;;;;;;;;;;;;;;7.74;74.30;102925.63;5083961;28;19924;-55
2022/11/12 01:58:11;;;;;;;;;;;;;;;7.75;74.33;102919.50;5087060;28;19924;-54
2022/11/12 02:00:36;;;;;;;;;;;;;;;7.75;74.26;102927.34;5070450;28;19920;-54
2022/11/12 02:03:06;;;;;;;;;;;;;;;7.75;74.10;102932.59;5088860;28;19955;-56
2022/11/12 02:05:32;;;;;;;;;;;;;;;7.74;74.23;102930.84;5084231;28;19962;-53
2022/11/12 02:07:59;;;;;;;;;;;;;;;7.73;74.26;102926.50;5090826;28;19916;-54
2022/11/12 02:10:24;;;;;;;;;;;;;;;7.65;73.47;102923.97;5089193;28;19947;-53
2022/11/12 02:15:34;;;;;;;;;;;;;;;7.60;73.75;102926.63;5084317;28;19946;-55
2022/11/12 02:17:59;;;;;;;;;;;;;;;7.56;73.81;102932.78;5086780;28;19916;-55
2022/11/12 02:20:25;;;;;;;;;;;;;;;7.54;73.93;102931.06;5081411;28;19937;-55
2022/11/12 02:22:50;;;;;;;;;;;;;;;7.55;73.97;102936.28;5066485;28;20298;-55
2022/11/12 02:25:20;;;;;;;;;;;;;;;7.55;73.88;102941.53;5085339;28;19928;-54
2022/11/12 02:27:50;;;;;;;;;;;;;;;7.56;73.50;102930.16;5087852;28;19951;-54
2022/11/12 02:30:16;;;;;;;;;;;;;;;7.55;72.69;102933.66;5094983;28;19917;-54
2022/11/12 02:32:41;;;;;;;;;;;;;;;7.52;72.03;102943.31;5093910;28;19916;-54
2022/11/12 02:35:07;;;;;;;;;;;;;;;7.48;71.70;102932.84;5086058;28;20371;-54
2022/11/12 02:37:32;;;;;;;;;;;;;;;7.47;71.69;102946.84;5088699;28;19926;-54
2022/11/12 02:39:57;;;;;;;;;;;;;;;7.51;71.98;102941.56;5088369;28;19928;-55
2022/11/12 02:42:23;;;;;;;;;;;;;;;7.52;71.70;102949.41;5083649;28;20362;-54
2022/11/12 02:44:48;;;;;;;;;;;;;;;7.51;71.73;102954.66;5085157;28;19924;-54
2022/11/12 02:47:13;;;;;;;;;;;;;;;7.52;71.83;102953.78;5084047;28;19920;-54
2022/11/12 02:49:39;;;;;;;;;;;;;;;7.54;71.71;102958.13;5091420;28;20414;-54
2022/11/12 02:52:04;;;;;;;;;;;;;;;7.59;71.93;102960.69;5086523;28;19928;-54
2022/11/12 02:54:29;;;;;;;;;;;;;;;7.62;71.98;102955.44;5074097;28;20302;-55
2022/11/12 02:56:55;;;;;;;;;;;;;;;7.67;72.16;102952.75;5087174;28;19935;-55
2022/11/12 02:59:20;;;;;;;;;;;;;;;7.72;72.28;102961.44;5088862;28;21144;-53
2022/11/12 03:01:45;;;;;;;;;;;;;;;7.76;72.30;102955.31;5091025;28;19926;-54
2022/11/12 03:04:10;;;;;;;;;;;;;;;7.80;72.55;102959.59;5090757;28;19927;-55
2022/11/12 03:06:36;;;;;;;;;;;;;;;7.85;72.64;102963.06;5088585;28;19959;-53
2022/11/12 03:09:01;;;;;;;;;;;;;;;7.91;72.66;102960.38;5074322;28;19940;-57
2022/11/12 03:11:26;;;;;;;;;;;;;;;7.97;72.68;102963.81;5090330;28;19931;-56
2022/11/12 03:13:52;;;;;;;;;;;;;;;8.00;72.68;102969.03;5091847;28;19916;-54
2022/11/12 03:16:17;;;;;;;;;;;;;;;8.05;72.36;102972.47;5094859;28;19974;-56
2022/11/12 03:18:42;;;;;;;;;;;;;;;8.08;72.30;102970.66;5090193;28;19955;-55
2022/11/12 03:21:08;;;;;;;;;;;;;;;8.12;72.34;102966.25;5091856;28;19923;-57
2022/11/12 03:23:33;;;;;;;;;;;;;;;8.18;72.46;102966.19;5094624;28;20442;-57
2022/11/12 03:26:00;;;;;;;;;;;;;;;8.22;72.53;102961.75;5088140;28;19920;-54
2022/11/12 03:28:26;;;;;;;;;;;;;;;8.28;72.51;102971.31;5087406;28;19928;-62
2022/11/12 03:30:55;;;;;;;;;;;;;;;8.31;72.37;102960.78;5088065;28;20302;-53
2022/11/12 03:33:20;;;;;;;;;;;;;;;8.34;72.34;102960.75;5082902;28;19923;-57
2022/11/12 03:35:46;;;;;;;;;;;;;;;8.36;72.23;102964.22;5087487;28;19920;-58
2022/11/12 03:38:11;;;;;;;;;;;;;;;8.39;72.22;102964.19;5083706;28;19939;-54
2022/11/12 03:40:36;;;;;;;;;;;;;;;8.38;72.48;102963.31;5081982;28;20387;-55
2022/11/12 03:43:02;;;;;;;;;;;;;;;8.44;72.48;102957.13;5084820;28;19919;-54
2022/11/12 03:45:27;;;;;;;;;;;;;;;8.50;72.52;102961.44;5087323;28;19978;-60
2022/11/12 03:47:53;;;;;;;;;;;;;;;8.49;72.54;102960.59;5087736;28;19935;-54
2022/11/12 03:50:20;;;;;;;;;;;;;;;8.51;72.75;102965.81;5088324;28;19924;-54
2022/11/12 03:52:50;;;;;;;;;;;;;;;8.51;72.82;102969.31;5083195;28;19939;-56
2022/11/12 03:55:17;;;;;;;;;;;;;;;8.51;72.86;102961.44;5082697;28;19970;-58
2022/11/12 03:57:42;;;;;;;;;;;;;;;8.53;72.74;102962.28;5087506;28;19924;-54
2022/11/12 04:00:09;;;;;;;;;;;;;;;8.55;72.76;102959.63;5084913;28;20002;-59
2022/11/12 04:02:35;;;;;;;;;;;;;;;8.57;72.73;102957.88;5089963;28;19912;-56
2022/11/12 04:10:29;;;;;;;;;;;;;;;8.52;73.33;102959.66;5085504;28;19922;-56
2022/11/12 04:15:39;;;;;;;;;;;;;;;8.57;73.25;102957.88;5087210;28;20015;-54
2022/11/12 04:23:32;;;;;;;;;;;;;;;8.62;73.47;102966.53;5082350;28;20386;-57
2022/11/12 04:30:14;;;;;;;;;;;;;;;8.68;73.62;102960.34;5081448;28;19927;-56
2022/11/12 04:31:29;;;;;;;;;;;;;;;8.76;73.41;102963.72;5083743;28;19923;-58
2022/11/12 04:34:27;;;;;;;;;;;;;;;8.82;73.33;102968.00;5089539;28;19916;-58
2022/11/12 04:36:40;;;;;;;;;;;;;;;8.87;72.96;102968.81;5081130;28;19932;-54
2022/11/12 04:39:05;;;;;;;;;;;;;;;8.92;72.71;102974.88;5081740;28;19924;-57
2022/11/12 04:47:15;;;;;;;;;;;;;;;8.99;72.40;102979.13;5080180;28;19982;-53
2022/11/12 04:49:40;;;;;;;;;;;;;;;8.96;72.51;102975.69;5085758;28;19924;-54
2022/11/12 04:52:06;;;;;;;;;;;;;;;8.94;72.54;102974.84;5081823;28;19932;-52
2022/11/12 04:54:31;;;;;;;;;;;;;;;8.96;72.59;102980.94;5087614;28;19923;-56
2022/11/12 04:56:57;;;;;;;;;;;;;;;8.98;72.63;102979.16;5079924;28;19979;-54
2022/11/12 04:59:22;;;;;;;;;;;;;;;8.97;72.68;102972.16;5083541;28;19924;-54
2022/11/12 05:01:47;;;;;;;;;;;;;;;8.98;72.79;102968.66;5085502;28;19966;-52
2022/11/12 05:04:12;;;;;;;;;;;;;;;8.99;72.87;102973.88;5092551;28;19935;-54
2022/11/12 05:06:50;;;;;;;;;;;;;;;8.99;72.91;102971.25;5084045;28;19934;-52
2022/11/12 05:09:16;;;;;;;;;;;;;;;9.03;72.92;102977.31;5088427;28;20363;-54
2022/11/12 05:11:41;;;;;;;;;;;;;;;9.04;73.04;102981.66;5089935;28;20383;-56
2022/11/12 05:14:06;;;;;;;;;;;;;;;9.08;72.86;102969.34;5085267;28;19916;-52
2022/11/12 05:16:31;;;;;;;;;;;;;;;9.13;72.81;102973.66;5087432;28;19920;-56
2022/11/12 05:18:57;;;;;;;;;;;;;;;9.18;72.68;102968.34;5084634;28;19924;-51
2022/11/12 05:24:06;;;;;;;;;;;;;;;9.26;72.42;102968.22;5095674;28;19966;-55
2022/11/12 05:26:31;;;;;;;;;;;;;;;9.25;72.59;102967.31;5086466;28;19960;-56
2022/11/12 05:28:56;;;;;;;;;;;;;;;9.24;72.91;102964.75;5087795;28;19962;-53
2022/11/12 05:31:22;;;;;;;;;;;;;;;9.26;72.90;102957.69;5084945;28;19962;-54
2022/11/12 05:33:47;;;;;;;;;;;;;;;9.29;72.81;102965.53;5089085;28;19925;-56
2022/11/12 05:36:12;;;;;;;;;;;;;;;9.31;72.83;102966.34;5084216;28;19932;-53
2022/11/12 05:38:38;;;;;;;;;;;;;;;9.29;73.08;102974.28;5087680;28;19920;-53
2022/11/12 05:41:04;;;;;;;;;;;;;;;9.30;72.96;102969.91;5087864;28;19931;-53
2022/11/12 05:43:29;;;;;;;;;;;;;;;9.32;73.10;102968.09;5089398;28;19946;-53
2022/11/12 05:45:54;;;;;;;;;;;;;;;9.35;72.87;102968.03;5080423;28;19946;-53
2022/11/12 05:48:19;;;;;;;;;;;;;;;9.33;72.94;102972.44;5085569;28;19920;-53
2022/11/12 05:50:48;;;;;;;;;;;;;;;9.36;72.95;102976.81;5086079;28;19996;-53
2022/11/12 05:53:13;;;;;;;;;;;;;;;9.37;73.03;102976.78;5088021;28;19920;-54
2022/11/12 05:55:38;;;;;;;;;;;;;;;9.38;73.12;102986.41;5087643;28;19923;-53
2022/11/12 05:58:05;;;;;;;;;;;;;;;9.41;73.17;102982.84;5090269;28;19967;-56
2022/11/12 06:00:30;;;;;;;;;;;;;;;9.42;73.05;102982.81;5089187;28;19924;-53
2022/11/12 06:02:56;;;;;;;;;;;;;;;9.41;73.32;102993.34;5086532;28;19927;-53
2022/11/12 06:05:22;;;;;;;;;;;;;;;9.34;73.51;102989.97;5086138;28;19970;-53
2022/11/12 06:07:47;;;;;;;;;;;;;;;9.36;73.44;102990.81;5086559;28;19971;-55
2022/11/12 06:10:12;;;;;;;;;;;;;;;9.35;73.25;102994.31;5062159;28;19920;-53
2022/11/12 06:12:37;;;;;;;;;;;;;;;9.38;73.31;102999.53;5094713;28;20322;-53
2022/11/12 06:15:03;;;;;;;;;;;;;;;9.35;73.28;102999.56;5080509;28;19928;-53
2022/11/12 06:17:28;;;;;;;;;;;;;;;9.36;73.47;103006.56;5089879;28;19924;-53
2022/11/12 06:19:54;;;;;;;;;;;;;;;9.34;73.50;103007.50;5090178;28;19947;-53
2022/11/12 06:22:19;;;;;;;;;;;;;;;9.37;73.53;103008.31;5089213;28;20375;-55
2022/11/12 06:24:44;;;;;;;;;;;;;;;9.39;73.36;103009.16;5081459;28;19924;-53
2022/11/12 06:27:09;;;;;;;;;;;;;;;9.41;73.25;103015.25;5089640;28;19920;-54
2022/11/12 06:29:35;;;;;;;;;;;;;;;9.42;73.34;103024.88;5086603;28;19931;-54
2022/11/12 06:32:00;;;;;;;;;;;;;;;9.42;73.48;103008.22;5092827;28;19947;-54
2022/11/12 06:34:25;;;;;;;;;;;;;;;9.44;73.50;103030.09;5095875;28;20015;-56
2022/11/12 06:36:51;;;;;;;;;;;;;;;9.43;73.55;103029.25;5090821;28;19920;-53
2022/11/12 06:39:16;;;;;;;;;;;;;;;9.48;73.32;103020.38;5089770;28;19924;-54
2022/11/12 06:41:41;;;;;;;;;;;;;;;9.45;73.75;103021.31;5090038;28;19928;-54
2022/11/12 06:44:07;;;;;;;;;;;;;;;9.51;73.65;103033.47;5092011;28;19920;-54
2022/11/12 06:46:32;;;;;;;;;;;;;;;9.50;73.79;103034.38;5089170;28;19928;-54
2022/11/12 06:48:57;;;;;;;;;;;;;;;9.51;73.87;103030.84;5086264;28;20418;-55
2022/11/12 06:51:24;;;;;;;;;;;;;;;9.54;73.88;103041.31;5093303;28;20015;-54
2022/11/12 06:53:50;;;;;;;;;;;;;;;9.55;73.87;103038.66;5078863;28;20466;-54
2022/11/12 06:56:16;;;;;;;;;;;;;;;9.56;73.96;103047.44;5089472;28;19959;-53
2022/11/12 06:58:41;;;;;;;;;;;;;;;9.59;74.21;103044.75;5089136;28;19947;-55
2022/11/12 07:01:14;;;;;;;;;;;;;;;9.57;74.22;103043.91;5081027;28;20921;-55
2022/11/12 07:03:40;;;;;;;;;;;;;;;9.64;74.10;103031.53;5085229;28;19920;-58
2022/11/12 07:06:07;;;;;;;;;;;;;;;9.66;73.89;103041.13;5083681;28;19922;-55
2022/11/12 07:08:33;;;;;;;;;;;;;;;9.67;73.95;103042.00;5078153;28;19928;-55
2022/11/12 07:10:58;;;;;;;;;;;;;;;9.65;73.90;103039.38;5077617;28;19924;-54
2022/11/12 07:13:24;;;;;;;;;;;;;;;9.62;74.12;103039.41;5090131;28;19922;-56
2022/11/12 07:15:49;;;;;;;;;;;;;;;9.61;74.05;103043.81;5088342;28;19916;-54
2022/11/12 07:18:14;;;;;;;;;;;;;;;9.62;74.17;103044.69;5084868;28;20395;-54
2022/11/12 07:20:40;;;;;;;;;;;;;;;9.60;74.35;103039.47;5084119;28;19919;-54
2022/11/12 07:23:05;;;;;;;;;;;;;;;9.65;74.40;103041.16;5088758;28;19924;-53
2022/11/12 07:25:30;;;;;;;;;;;;;;;9.73;74.20;103042.75;5094352;28;19947;-54
2022/11/12 07:27:56;;;;;;;;;;;;;;;9.81;74.23;103040.00;5083745;28;19928;-55
2022/11/12 07:30:21;;;;;;;;;;;;;;;9.90;73.94;103052.13;5090520;28;19916;-54
2022/11/12 07:32:46;;;;;;;;;;;;;;;10.02;73.75;103049.25;5091431;28;21323;-54
2022/11/12 07:35:12;;;;;;;;;;;;;;;10.07;73.79;103042.13;5089452;28;20012;-54
2022/11/12 07:37:37;;;;;;;;;;;;;;;10.16;73.56;103045.50;5076713;28;19920;-55
2022/11/12 07:40:03;;;;;;;;;;;;;;;10.19;73.46;103046.28;5089101;28;19924;-54
2022/11/12 07:42:31;;;;;;;;;;;;;;;10.25;73.49;103055.84;5091007;28;19912;-54
2022/11/12 07:44:56;;;;;;;;;;;;;;;10.30;73.58;103056.63;5081283;28;20402;-55
2022/11/12 07:47:21;;;;;;;;;;;;;;;10.36;73.44;103060.91;5058223;28;19920;-55
2022/11/12 07:49:46;;;;;;;;;;;;;;;10.42;73.35;103059.94;5081377;28;20387;-54
2022/11/12 07:52:12;;;;;;;;;;;;;;;10.45;73.59;103052.84;5080493;28;19920;-54
2022/11/12 07:54:37;;;;;;;;;;;;;;;10.50;73.57;103065.94;5089518;28;20330;-54
2022/11/12 07:57:02;;;;;;;;;;;;;;;10.57;73.60;103062.25;5091866;28;20341;-54
2022/11/12 07:59:28;;;;;;;;;;;;;;;10.65;73.33;103046.31;5091201;28;19926;-55
2022/11/12 08:01:53;;;;;;;;;;;;;;;10.70;73.20;103052.34;5082312;28;19924;-54
2022/11/12 08:04:18;;;;;;;;;;;;;;;10.77;73.04;103047.81;5088993;28;20524;-55
2022/11/12 08:06:44;;;;;;;;;;;;;;;10.79;73.12;103041.59;5082606;28;19924;-55
2022/11/12 08:09:09;;;;;;;;;;;;;;;10.83;73.23;103045.03;5093224;28;19923;-54
2022/11/12 08:11:35;;;;;;;;;;;;;;;10.83;73.18;103043.28;5093176;28;19999;-54
2022/11/12 08:14:01;;;;;;;;;;;;;;;10.86;73.38;103034.44;5089913;28;19912;-54
2022/11/12 08:16:27;;;;;;;;;;;;;;;10.87;73.17;103049.34;5063767;28;19916;-54
2022/11/12 08:18:52;;;;;;;;;;;;;;;10.89;73.29;103044.91;5085545;28;19931;-57
2022/11/12 08:21:18;;;;;;;;;;;;;;;10.87;73.58;103070.41;5077260;28;19939;-58
2022/11/12 08:23:44;;;;;;;;;;;;;;;10.74;74.25;103058.41;5080646;28;19916;-56
2022/11/12 08:26:13;;;;;;;;;;;;;;;10.73;74.41;103069.84;5086517;28;19928;-53
2022/11/12 08:28:39;;;;;;;;;;;;;;;10.74;74.56;103056.63;5089853;28;19911;-55
2022/11/12 08:31:06;;;;;;;;;;;;;;;10.83;74.48;103084.53;5086255;28;20015;-55
2022/11/12 08:33:32;;;;;;;;;;;;;;;10.86;74.46;103081.84;5089902;28;19919;-54
2022/11/12 08:35:58;;;;;;;;;;;;;;;10.93;74.46;103075.56;5086725;28;19920;-53
2022/11/12 08:38:23;;;;;;;;;;;;;;;11.02;74.11;103082.38;5084180;28;19916;-55
2022/11/12 08:40:48;;;;;;;;;;;;;;;11.10;73.74;103084.84;5085879;28;19920;-54
2022/11/12 08:43:13;;;;;;;;;;;;;;;11.12;73.86;103083.03;5086354;28;20015;-54
2022/11/12 08:45:39;;;;;;;;;;;;;;;11.17;73.81;103094.34;5089539;28;19928;-60
2022/11/12 08:48:06;;;;;;;;;;;;;;;11.20;73.74;103083.72;5086675;28;19916;-53
2022/11/12 08:50:32;;;;;;;;;;;;;;;11.20;73.63;103078.47;5086101;28;19973;-57
2022/11/12 08:52:59;;;;;;;;;;;;;;;11.24;73.49;103089.78;5087831;28;19928;-54
2022/11/12 08:55:24;;;;;;;;;;;;;;;11.27;73.34;103097.63;5084481;28;19920;-59
2022/11/12 08:57:49;;;;;;;;;;;;;;;11.33;73.33;103091.34;5087416;28;19958;-55
2022/11/12 09:00:15;;;;;;;;;;;;;;;11.39;73.29;103088.59;5085307;28;20015;-54
2022/11/12 09:02:40;;;;;;;;;;;;;;;11.46;73.15;103095.44;5084642;28;20291;-55
2022/11/12 09:05:06;;;;;;;;;;;;;;;11.51;73.06;103100.59;5083840;28;20017;-55
2022/11/12 09:07:31;;;;;;;;;;;;;;;11.53;72.89;103101.41;5087011;28;20542;-54
2022/11/12 09:09:57;;;;;;;;;;;;;;;11.53;72.83;103107.56;5087727;28;19920;-56
2022/11/12 09:12:22;;;;;;;;;;;;;;;11.54;72.97;103108.44;5083959;28;20014;-59
2022/11/12 09:14:47;;;;;;;;;;;;;;;11.55;73.11;103104.88;5088502;28;19931;-54
2022/11/12 09:17:13;;;;;;;;;;;;;;;11.57;72.98;103103.94;5073850;28;19929;-56
2022/11/12 09:19:38;;;;;;;;;;;;;;;11.58;72.93;103120.63;5083425;28;19920;-57
2022/11/12 09:22:03;;;;;;;;;;;;;;;11.60;73.06;103121.47;5085074;28;19924;-54
2022/11/12 09:24:29;;;;;;;;;;;;;;;11.64;72.79;103114.34;5079828;28;19924;-54
2022/11/12 09:26:54;;;;;;;;;;;;;;;11.67;72.63;103119.56;5081201;28;19920;-54
2022/11/12 09:29:20;;;;;;;;;;;;;;;11.70;72.66;103119.50;5087656;28;19987;-62
2022/11/12 09:31:45;;;;;;;;;;;;;;;11.71;72.55;103123.88;5085986;28;20303;-54
2022/11/12 09:34:11;;;;;;;;;;;;;;;11.76;72.64;103123.75;5090286;28;20296;-55
2022/11/12 09:36:36;;;;;;;;;;;;;;;11.77;72.82;103115.78;5088864;28;19985;-56
2022/11/12 09:39:01;;;;;;;;;;;;;;;11.83;72.80;103118.28;5092996;28;19939;-54
2022/11/12 09:41:34;;;;;;;;;;;;;;;11.88;72.72;103134.84;5086604;28;20329;-55
2022/11/12 09:44:07;;;;;;;;;;;;;;;11.94;72.44;103120.66;5088395;28;19920;-55
2022/11/12 09:46:39;;;;;;;;;;;;;;;11.98;72.53;103135.50;5087752;28;20015;-54
2022/11/12 09:49:05;;;;;;;;;;;;;;;12.05;72.24;103123.03;5091820;28;20007;-54
2022/11/12 09:51:35;;;;;;;;;;;;;;;12.08;72.22;103124.72;5080638;28;19927;-56
2022/11/12 09:54:04;;;;;;;;;;;;;;;12.13;72.10;103128.09;5080882;28;20337;-55
2022/11/12 09:56:30;;;;;;;;;;;;;;;12.17;71.73;103129.75;5086535;28;20381;-57
2022/11/12 09:58:55;;;;;;;;;;;;;;;12.23;71.69;103124.31;5089442;28;19962;-59
2022/11/12 10:01:39;;;;;;;;;;;;;;;12.33;71.43;103124.91;5088692;28;20056;-53
2022/11/12 10:04:23;;;;;;;;;;;;;;;12.39;71.23;103124.78;5090700;28;19927;-53
2022/11/12 10:06:53;;;;;;;;;;;;;;;12.48;70.94;103113.94;5090780;28;19985;-56
2022/11/12 10:09:21;;;;;;;;;;;;;;;12.55;70.69;103119.94;5087254;28;20018;-53
2022/11/12 10:14:46;;;;;;;;;;;;;;;12.68;70.47;103104.59;5087448;28;19931;-57
2022/11/12 10:17:12;;;;;;;;;;;;;;;12.74;70.40;103109.72;5084120;28;20389;-54
2022/11/12 10:19:37;;;;;;;;;;;;;;;12.80;70.12;103100.75;5088969;28;19967;-54
2022/11/12 10:22:21;;;;;;;;;;;;;;;12.87;70.14;103091.69;5075204;28;19924;-60
2022/11/12 10:24:47;;;;;;;;;;;;;;;12.92;69.54;103096.88;5086586;28;19974;-59
2022/11/12 10:27:26;;;;;;;;;;;;;;;12.92;69.44;103115.38;5084029;28;20388;-53
2022/11/12 10:29:58;;;;;;;;;;;;;;;12.98;69.77;103109.88;5090749;28;19924;-54
2022/11/12 10:32:24;;;;;;;;;;;;;;;13.06;69.61;103107.88;5093439;28;20646;-56
2022/11/12 10:34:49;;;;;;;;;;;;;;;13.14;69.26;103120.88;5079550;28;20019;-54
2022/11/12 10:37:22;;;;;;;;;;;;;;;13.22;69.33;103110.06;5062719;28;19928;-57
2022/11/12 10:39:48;;;;;;;;;;;;;;;13.30;68.98;103113.31;5065955;28;19928;-54
2022/11/12 10:42:14;;;;;;;;;;;;;;;13.31;68.74;103107.13;5045520;28;19935;-57
2022/11/12 10:44:44;;;;;;;;;;;;;;;13.36;68.81;103091.97;5082564;28;20387;-56
2022/11/12 10:47:18;;;;;;;;;;;;;;;13.40;68.77;103090.13;5075190;28;20871;-57
2022/11/12 10:49:44;;;;;;;;;;;;;;;13.39;68.58;103086.56;5088297;28;19916;-54
2022/11/12 10:52:23;;;;;;;;;;;;;;;13.43;68.75;103089.16;5077856;28;19971;-55
2022/11/12 10:54:48;;;;;;;;;;;;;;;13.36;69.00;103099.91;5087677;28;20399;-53
2022/11/12 10:57:21;;;;;;;;;;;;;;;13.47;68.90;103104.00;5090555;28;19947;-55
2022/11/12 11:00:04;;;;;;;;;;;;;;;13.55;68.68;103089.63;5083689;28;20002;-54
2022/11/12 11:02:29;;;;;;;;;;;;;;;13.56;68.21;103103.69;5095653;28;19915;-57
2022/11/12 11:04:55;;;;;;;;;;;;;;;13.52;68.67;103097.66;5077206;28;19981;-54
2022/11/12 11:07:23;;;;;;;;;;;;;;;13.65;68.68;103106.06;5093394;28;19912;-54
2022/11/12 11:09:52;;;;;;;;;;;;;;;13.79;68.38;103112.69;5089630;28;19919;-59
2022/11/12 11:12:23;;;;;;;;;;;;;;;13.87;68.21;103098.28;5091402;28;19916;-56
2022/11/12 11:15:03;;;;;;;;;;;;;;;13.95;68.04;103095.34;5088569;28;19917;-54
2022/11/12 11:17:29;;;;;;;;;;;;;;;13.99;67.78;103090.81;5085278;28;19939;-54
2022/11/12 11:19:54;;;;;;;;;;;;;;;13.96;67.70;103096.22;5087261;28;20302;-55
2022/11/12 11:22:19;;;;;;;;;;;;;;;13.86;67.23;103093.00;5086367;28;19920;-56
2022/11/12 11:24:48;;;;;;;;;;;;;;;13.86;67.33;103090.38;5073890;28;19916;-53
2022/11/12 11:27:16;;;;;;;;;;;;;;;13.82;67.12;103083.47;5088655;28;19947;-54
2022/11/12 11:29:56;;;;;;;;;;;;;;;13.85;67.47;103084.22;5083786;28;20405;-55
2022/11/12 11:32:27;;;;;;;;;;;;;;;13.84;67.32;103085.13;5065485;28;19924;-55
2022/11/12 11:34:59;;;;;;;;;;;;;;;13.84;67.43;103085.13;5074686;28;20290;-53
2022/11/12 11:37:28;;;;;;;;;;;;;;;13.88;67.55;103088.53;5083697;28;19941;-57
2022/11/12 11:39:53;;;;;;;;;;;;;;;13.86;67.67;103087.72;5079828;28;19935;-56
2022/11/12 11:42:42;;;;;;;;;;;;;;;13.80;68.09;103090.59;5081960;28;19924;-55
2022/11/12 11:45:23;;;;;;;;;;;;;;;13.82;68.11;103086.13;5079494;28;19924;-55
2022/11/12 11:47:51;;;;;;;;;;;;;;;13.81;68.36;103085.25;5080463;28;19947;-56
2022/11/12 11:50:26;;;;;;;;;;;;;;;13.74;68.69;103080.19;5090885;28;20459;-57
2022/11/12 11:52:51;;;;;;;;;;;;;;;13.78;68.60;103080.03;5084874;28;20011;-56
2022/11/12 11:55:16;;;;;;;;;;;;;;;13.82;68.45;103073.72;5078862;28;21321;-54
2022/11/12 11:57:51;;;;;;;;;;;;;;;13.83;68.69;103066.69;5082325;28;19920;-56
2022/11/12 12:00:19;;;;;;;;;;;;;;;13.77;68.87;103070.38;5075731;28;20013;-57
2022/11/12 12:02:53;;;;;;;;;;;;;;;13.85;68.71;103072.75;5072609;28;19954;-56
2022/11/12 12:05:37;;;;;;;;;;;;;;;13.93;68.50;103076.00;5079469;28;19915;-53
2022/11/12 12:08:08;;;;;;;;;;;;;;;13.99;68.11;103074.94;5077786;28;19955;-55
2022/11/12 12:10:46;;;;;;;;;;;;;;;14.02;68.13;103073.03;5089612;28;19920;-52
2022/11/12 12:13:14;;;;;;;;;;;;;;;13.90;68.57;103078.75;5093616;28;20065;-56
2022/11/12 12:15:51;;;;;;;;;;;;;;;13.86;68.91;103067.44;5069418;28;19927;-58
2022/11/12 12:18:19;;;;;;;;;;;;;;;13.87;68.98;103065.63;5087467;28;19916;-57
2022/11/12 12:20:45;;;;;;;;;;;;;;;13.95;68.60;103070.66;5085005;28;19942;-55
2022/11/12 12:23:10;;;;;;;;;;;;;;;13.96;68.78;103075.91;5079345;28;19919;-57
2022/11/12 12:25:37;;;;;;;;;;;;;;;13.95;68.80;103068.91;5087215;28;20552;-56
2022/11/12 12:28:11;;;;;;;;;;;;;;;13.98;68.60;103068.78;5089351;28;19920;-53
2022/11/12 12:30:40;;;;;;;;;;;;;;;14.09;68.46;103063.09;5085975;28;19919;-55
2022/11/12 12:33:17;;;;;;;;;;;;;;;14.16;68.19;103069.03;5079542;28;19924;-56
2022/11/12 12:35:55;;;;;;;;;;;;;;;14.24;68.20;103069.63;5066110;28;19955;-55
2022/11/12 12:38:32;;;;;;;;;;;;;;;14.28;67.95;103071.25;5083649;28;20398;-57
2022/11/12 12:41:01;;;;;;;;;;;;;;;14.20;67.60;103070.66;5080132;28;19928;-57
2022/11/12 12:43:26;;;;;;;;;;;;;;;14.20;67.55;103073.31;5080130;28;20855;-55
2022/11/12 12:45:52;;;;;;;;;;;;;;;14.17;67.28;103068.13;5089099;28;19916;-63
2022/11/12 12:48:37;;;;;;;;;;;;;;;14.25;67.25;103076.66;5088646;28;19920;-56
2022/11/12 12:51:03;;;;;;;;;;;;;;;14.23;67.12;103067.03;5085325;28;19920;-57
2022/11/12 12:53:28;;;;;;;;;;;;;;;14.24;67.36;103074.06;5085092;28;20283;-55
2022/11/12 12:56:01;;;;;;;;;;;;;;;14.26;67.50;103067.81;5087005;28;19995;-58
2022/11/12 12:58:39;;;;;;;;;;;;;;;14.33;67.32;103056.06;5082552;28;19920;-53
2022/11/12 13:01:11;;;;;;;;;;;;;;;14.38;67.23;103057.66;5087096;28;19920;-58
2022/11/12 13:03:42;;;;;;;;;;;;;;;14.39;66.88;103056.75;5086685;28;19916;-57
2022/11/12 13:06:13;;;;;;;;;;;;;;;14.38;67.24;103060.31;5089442;28;19916;-56
2022/11/12 13:08:39;;;;;;;;;;;;;;;14.41;67.02;103058.41;5088408;28;20001;-55
2022/11/12 13:11:04;;;;;;;;;;;;;;;14.42;66.52;103064.59;5088506;28;19924;-55
2022/11/12 13:13:34;;;;;;;;;;;;;;;14.46;66.47;103048.53;5090272;28;22630;-57